^^
Saratoga-Weather Station Historical Data
Daily Summary for August 17, 2020 Units:  English    Metric   Both
Daily Weekly Monthly Yearly Custom
  High: Low: Average:
Temperature: 48.4 °F 43.9 °F 45.5 °F
Dew Point: 45.7 °F 39.6 °F 43 °F
Humidity: 94% 81% 90%
Wind Speed: 14.1mph 0mph 3.2mph
Wind Gust: 18mph - -
Wind- - West
Pressure: 30.2 in 29.9 in -
Precipitation: 0.32 in    
Historical Graphs
 
 
Tabular Data for August 17, 2020
Time Temperature Dew Point Pressure Wind Wind Speed Wind Gust Humidity Rainfall Rate (Hourly) solar
00:03 48.4 °F 45.5 °F 29.9 in WNW 6.9 mph 12 mph 90% 0.03 in 0 W/m2
00:08 48.2 °F 45.7 °F 29.9 in West 6 mph 7 mph 91% 0.02 in 0 W/m2
00:13 48.2 °F 45.7 °F 29.9 in WNW 6.9 mph 12 mph 91% 0.02 in 0 W/m2
00:18 48 °F 45.5 °F 29.9 in SW 4.9 mph 13 mph 91% 0.03 in 0 W/m2
00:23 47.8 °F 45.7 °F 29.9 in West 6.9 mph 10 mph 92% 0.03 in 0 W/m2
00:28 47.8 °F 45.7 °F 29.9 in West 2 mph 10 mph 92% 0.04 in 0 W/m2
00:33 47.8 °F 45.7 °F 29.9 in WNW 2.9 mph 6 mph 92% 0.05 in 0 W/m2
00:38 47.7 °F 45.5 °F 29.9 in West 2 mph 8 mph 92% 0.06 in 0 W/m2
00:43 47.7 °F 45.5 °F 29.9 in WNW 6 mph 8 mph 92% 0.07 in 0 W/m2
00:48 47.5 °F 45.5 °F 29.9 in WNW 0.9 mph 4 mph 93% 0.08 in 0 W/m2
00:53 47.5 °F 45.5 °F 29.9 in WNW 4.9 mph 7 mph 93% 0.08 in 0 W/m2
00:58 47.5 °F 45.5 °F 29.9 in WSW 8.9 mph 10 mph 93% 0.07 in 0 W/m2
01:03 47.5 °F 45.5 °F 29.9 in WSW 8.9 mph 9 mph 93% 0.07 in 0 W/m2
01:08 47.5 °F 45.5 °F 29.9 in WNW 4.9 mph 8 mph 93% 0.06 in 0 W/m2
01:13 47.5 °F 45.3 °F 29.9 in WNW 2 mph 5 mph 92% 0.07 in 0 W/m2
01:18 47.5 °F 45.5 °F 29.9 in SW 4.9 mph 9 mph 93% 0.07 in 0 W/m2
01:23 47.5 °F 45.5 °F 29.9 in Calm   4 mph 93% 0.07 in 0 W/m2
01:28 47.5 °F 45.5 °F 29.9 in Calm   9 mph 93% 0.07 in 0 W/m2
01:33 47.5 °F 45.5 °F 29.9 in Calm   4 mph 93% 0.07 in 0 W/m2
01:38 47.5 °F 45.5 °F 29.9 in WNW 2.9 mph 5 mph 93% 0.06 in 0 W/m2
01:43 47.5 °F 45.5 °F 30 in WNW 4.9 mph 7 mph 93% 0.06 in 0 W/m2
01:48 47.5 °F 45.5 °F 30 in WSW 6.9 mph 7 mph 93% 0.06 in 0 W/m2
01:53 47.5 °F 45.5 °F 30 in SSW 4.9 mph 13 mph 93% 0.07 in 0 W/m2
01:58 47.3 °F 45.1 °F 30 in WSW 8.1 mph 11 mph 92% 0.09 in 0 W/m2
02:03 46.9 °F 44.8 °F 30 in West 8.1 mph 18 mph 92% 0.1 in 0 W/m2
02:08 46.4 °F 43.9 °F 30 in West 10.1 mph 11 mph 91% 0.12 in 0 W/m2
02:13 46 °F 43.5 °F 30 in WSW 4 mph 15 mph 91% 0.13 in 0 W/m2
02:18 45.9 °F 43.3 °F 30 in WNW 2 mph 4 mph 91% 0.13 in 0 W/m2
02:23 45.7 °F 43.2 °F 30 in NW 0.9 mph 10 mph 91% 0.13 in 0 W/m2
02:28 45.5 °F 43 °F 30 in Calm   1 mph 91% 0.14 in 0 W/m2
02:33 45.5 °F 43.3 °F 30 in Calm   9 mph 92% 0.14 in 0 W/m2
02:38 45.3 °F 43.2 °F 30 in Calm     92% 0.13 in 0 W/m2
02:43 45.3 °F 43.3 °F 30 in NE 2.9 mph 3 mph 93% 0.13 in 0 W/m2
02:48 45.5 °F 43.5 °F 30 in East 0.9 mph 2 mph 93% 0.13 in 0 W/m2
02:53 45.7 °F 43.7 °F 30 in NW 0.9 mph 3 mph 93% 0.12 in 0 W/m2
02:58 45.7 °F 43.7 °F 30 in WNW 2 mph 6 mph 93% 0.1 in 0 W/m2
03:03 45.9 °F 43.9 °F 30 in Calm   5 mph 93% 0.09 in 0 W/m2
03:08 45.9 °F 44.2 °F 30 in North 4 mph 6 mph 94% 0.07 in 0 W/m2
03:13 46 °F 44.4 °F 30 in West 8.1 mph 12 mph 94% 0.06 in 0 W/m2
03:18 46.2 °F 44.2 °F 30 in WNW 2 mph 8 mph 93% 0.04 in 0 W/m2
03:23 46.6 °F 44.6 °F 30 in WNW 4 mph 12 mph 93% 0.03 in 0 W/m2
03:28 46.6 °F 44.6 °F 30 in Calm   2 mph 93% 0.02 in 0 W/m2
03:33 46.4 °F 44.4 °F 30 in SSW 0.9 mph 8 mph 93% 0.02 in 0 W/m2
03:38 46.2 °F 44.1 °F 30 in NNW 2.9 mph 4 mph 92% 0.01 in 0 W/m2
03:43 46.2 °F 44.1 °F 30 in West 2 mph 3 mph 92% 0.01 in 0 W/m2
03:48 46 °F 43.9 °F 30 in SW 2 mph 9 mph 92% 0.01 in 0 W/m2
03:53 45.9 °F 43.3 °F 30 in North 6 mph 6 mph 91% 0.02 in 0 W/m2
03:58 45.7 °F 43 °F 30 in West 2 mph 8 mph 90% 0.02 in 0 W/m2
04:03 45.3 °F 42.6 °F 30 in WNW 4 mph 7 mph 90% 0.02 in 0 W/m2
04:08 45.3 °F 42.6 °F 30 in SW 2.9 mph 3 mph 90% 0.02 in 0 W/m2
04:13 45.1 °F 42.4 °F 30 in SW 2.9 mph 4 mph 90% 0.02 in 0 W/m2
04:18 45 °F 42.3 °F 30 in NNE 4 mph 4 mph 90% 0.02 in 0 W/m2
04:23 44.8 °F 42.1 °F 30 in SE 0.9 mph 4 mph 90% 0.02 in 0 W/m2
04:28 44.6 °F 41.9 °F 30 in NNW 4 mph 4 mph 90% 0.01 in 0 W/m2
04:34 44.4 °F 41.7 °F 30 in West 0.9 mph 3 mph 90% 0.01 in 0 W/m2
04:39 44.2 °F 41.5 °F 30 in WSW 2.9 mph 3 mph 90% 0.01 in 0 W/m2
04:44 44.2 °F 41.5 °F 30 in WSW 2.9 mph 4 mph 90% 0.01 in 0 W/m2
04:49 44.1 °F 41.5 °F 30 in West 6 mph 6 mph 91% 0.01 in 0 W/m2
04:54 44.1 °F 41.4 °F 30 in WNW 2 mph 2 mph 90% 0 in 0 W/m2
04:59 44.1 °F 41.4 °F 30 in West 2 mph 4 mph 90% 0 in 0 W/m2
05:04 44.1 °F 41.4 °F 30 in North 2 mph 2 mph 90% 0 in 0 W/m2
05:09 44.1 °F 41.4 °F 30 in NW 4 mph 4 mph 90% 0 in 0 W/m2
05:14 44.2 °F 41.5 °F 30 in West 0.9 mph 4 mph 90% 0 in 0 W/m2
05:19 44.1 °F 41.4 °F 30 in WNW 2 mph 2 mph 90% 0 in 0 W/m2
05:24 44.1 °F 41.4 °F 30 in North 0.9 mph 2 mph 90% 0 in 0 W/m2
05:29 44.1 °F 41.4 °F 30 in WNW 2 mph 4 mph 90% 0 in 0 W/m2
05:34 44.2 °F 41.5 °F 30 in WNW 2 mph 3 mph 90% 0 in 0 W/m2
05:39 44.2 °F 41.5 °F 30 in WNW 8.1 mph 8 mph 90% 0 in 0 W/m2
05:44 44.4 °F 41.4 °F 30 in Calm   3 mph 89% 0 in 0 W/m2
05:49 44.4 °F 41.4 °F 30 in West 4 mph 4 mph 89% 0 in 0 W/m2
05:54 44.4 °F 41.4 °F 30 in Calm   6 mph 89% 0 in 0 W/m2
05:59 44.6 °F 41.5 °F 30 in Calm   4 mph 89% 0 in 0 W/m2
06:04 44.4 °F 41.4 °F 30 in NW 2 mph 3 mph 89% 0 in 0 W/m2
06:09 44.4 °F 41.4 °F 30 in NNW 2 mph 3 mph 89% 0 in 0 W/m2
06:15 44.4 °F 41.4 °F 30 in NW 2.9 mph 4 mph 89% 0 in 0 W/m2
06:20 44.4 °F 41.4 °F 30 in WSW 0.9 mph 7 mph 89% 0 in 0 W/m2
06:25 44.4 °F 41.4 °F 30 in NW 0.9 mph 5 mph 89% 0 in 0 W/m2
06:30 44.4 °F 41.7 °F 30 in West 2 mph 7 mph 90% 0 in 0 W/m2
06:35 44.4 °F 41.7 °F 30 in WNW 2 mph 5 mph 90% 0 in 0 W/m2
06:40 44.6 °F 42.1 °F 30 in WNW 2.9 mph 7 mph 91% 0 in 0 W/m2
06:45 44.6 °F 42.1 °F 30 in WNW 2 mph 3 mph 91% 0 in 0 W/m2
06:50 44.8 °F 42.3 °F 30 in WNW 2 mph 7 mph 91% 0 in 0 W/m2
06:55 44.8 °F 42.3 °F 30 in NW 2.9 mph 3 mph 91% 0 in 0 W/m2
07:00 44.8 °F 42.6 °F 30 in West 0.9 mph 7 mph 92% 0 in 0 W/m2
07:05 44.8 °F 42.6 °F 30 in NE 2 mph 2 mph 92% 0 in 0 W/m2
07:10 45 °F 42.8 °F 30 in NW 4.9 mph 5 mph 92% 0 in 0 W/m2
07:15 45 °F 42.8 °F 30 in NW 2 mph 7 mph 92% 0 in 0 W/m2
07:20 45 °F 42.8 °F 30 in West 2.9 mph 4 mph 92% 0 in 0 W/m2
07:25 45.1 °F 43 °F 30 in WNW 4.9 mph 7 mph 92% 0 in 0 W/m2
07:30 45.1 °F 42.6 °F 30 in NW 2.9 mph 3 mph 91% 0 in 0 W/m2
07:35 45.1 °F 42.6 °F 30 in NNE 0.9 mph 2 mph 91% 0 in 0 W/m2
07:40 45.1 °F 42.6 °F 30 in Calm   3 mph 91% 0 in 0 W/m2
07:45 45.1 °F 42.6 °F 30 in NW 2.9 mph 5 mph 91% 0 in 0 W/m2
07:50 45.3 °F 42.8 °F 30 in West 0.9 mph 6 mph 91% 0 in 0 W/m2
07:55 45.3 °F 42.8 °F 30 in WNW 2.9 mph 8 mph 91% 0 in 0 W/m2
08:00 45.3 °F 42.6 °F 30 in WNW 2.9 mph 4 mph 90% 0 in 0 W/m2
08:05 45.5 °F 42.8 °F 30 in West 8 mph 8 mph 90% 0 in 0 W/m2
08:10 45.5 °F 42.8 °F 30 in WNW 2 mph 5 mph 90% 0 in 5 W/m2
08:16 45.5 °F 42.8 °F 30 in West 4 mph 6 mph 90% 0 in 0 W/m2
08:21 45.7 °F 43 °F 30 in NW 4.9 mph 6 mph 90% 0 in 5 W/m2
08:26 45.7 °F 43 °F 30 in NNW 4 mph 4 mph 90% 0 in 7 W/m2
08:31 45.7 °F 43 °F 30 in WNW 0.9 mph 3 mph 90% 0 in 7 W/m2
08:36 45.7 °F 43 °F 30 in West 2 mph 4 mph 90% 0 in 7 W/m2
08:41 45.7 °F 43 °F 30 in West 0.9 mph 4 mph 90% 0 in 9 W/m2
08:46 45.7 °F 43 °F 30 in NW 4 mph 5 mph 90% 0 in 11 W/m2
08:51 45.5 °F 42.4 °F 30 in NW 0.9 mph 3 mph 89% 0.01 in 11 W/m2
08:56 45.5 °F 42.4 °F 30 in WNW 2 mph 4 mph 89% 0.01 in 11 W/m2
09:01 45.3 °F 42.6 °F 30 in ESE 0.9 mph 4 mph 90% 0.02 in 12 W/m2
09:06 45.3 °F 42.3 °F 30 in SW 2.9 mph 8 mph 89% 0.02 in 16 W/m2
09:11 45.1 °F 42.4 °F 30 in Calm   2 mph 90% 0.02 in 16 W/m2
09:16 45.1 °F 42.1 °F 30 in West 0.9 mph 4 mph 89% 0.02 in 18 W/m2
09:21 45 °F 41.9 °F 30 in WSW 0.9 mph 3 mph 89% 0.03 in 19 W/m2
09:26 45 °F 41.9 °F 30 in NW 0.9 mph 2 mph 89% 0.03 in 23 W/m2
09:31 45 °F 42.3 °F 30 in NE 0.9 mph 9 mph 90% 0.04 in 30 W/m2
09:36 45 °F 42.3 °F 30 in NW 2 mph 3 mph 90% 0.04 in 32 W/m2
09:41 44.8 °F 42.1 °F 30 in NNW 2 mph 5 mph 90% 0.04 in 30 W/m2
09:46 44.8 °F 42.1 °F 30 in North 2 mph 3 mph 90% 0.05 in 39 W/m2
19:15 46.9 °F 41.4 °F 30.1 in NNW 0.9 mph 7 mph 81% 0 in 0 W/m2
23:06 44.8 °F 39.9 °F 30.2 in WNW 14.1 mph 16 mph 83% 0 in 0 W/m2
23:11 44.8 °F 39.9 °F 30.2 in WSW 11 mph 13 mph 83% 0 in 0 W/m2
23:16 44.4 °F 39.6 °F 30.2 in WNW 4 mph 4 mph 83% 0 in 0 W/m2
23:21 44.4 °F 39.9 °F 30.2 in NW 2.9 mph 9 mph 84% 0 in 0 W/m2
23:26 44.2 °F 39.7 °F 30.2 in West 8.1 mph 13 mph 84% 0 in 0 W/m2
23:31 44.2 °F 40.1 °F 30.2 in WNW 4 mph 9 mph 85% 0 in 0 W/m2
23:36 44.1 °F 39.9 °F 30.2 in West 6.9 mph 11 mph 85% 0 in 0 W/m2
23:46 43.9 °F 39.7 °F 30.2 in West 6 mph 11 mph 85% 0 in 0 W/m2
23:51 43.9 °F 39.9 °F 30.2 in West 6.9 mph 12 mph 86% 0 in 0 W/m2
23:56 43.9 °F 39.9 °F 30.2 in WSW 2.9 mph 14 mph 86% 0 in 0 W/m2
Juneau County Weather
Compliments of Weather Underground - 4 mb